createdAt,value
2023-01-27T00:01:18.085Z,2.70
2023-01-27T00:03:45.423Z,2.40
2023-01-27T00:06:13.221Z,2.60
2023-01-27T00:08:40.157Z,2.50
2023-01-27T00:11:25.555Z,1.70
2023-01-27T00:13:52.358Z,2.60
2023-01-27T00:16:19.207Z,2.20
2023-01-27T00:18:46.056Z,2.50
2023-01-27T00:21:31.213Z,2.60
2023-01-27T00:24:16.720Z,2.40
2023-01-27T00:26:43.620Z,2.50
2023-01-27T00:29:10.546Z,2.60
2023-01-27T00:31:55.747Z,2.50
2023-01-27T00:34:22.563Z,2.60
2023-01-27T00:36:49.383Z,2.20
2023-01-27T00:39:16.257Z,2.60
2023-01-27T00:41:43.139Z,2.60
2023-01-27T00:44:13.162Z,2.30
2023-01-27T00:46:40.619Z,2.70
2023-01-27T00:49:07.777Z,2.60
2023-01-27T00:51:36.498Z,2.60
2023-01-27T00:54:04.144Z,2.60
2023-01-27T00:56:31.468Z,2.60
2023-01-27T00:58:58.436Z,2.70
2023-01-27T01:01:25.320Z,2.60
2023-01-27T01:03:52.233Z,3.70
2023-01-27T01:06:20.167Z,2.60
2023-01-27T01:08:48.573Z,2.50
2023-01-27T01:11:17.377Z,2.50
2023-01-27T01:13:45.119Z,2.70
2023-01-27T01:16:15.867Z,2.60
2023-01-27T01:18:43.603Z,2.60
2023-01-27T01:21:11.434Z,2.60
2023-01-27T01:23:40.361Z,2.70
2023-01-27T01:26:07.969Z,2.50
2023-01-27T01:28:34.888Z,2.80
2023-01-27T01:31:13.036Z,2.30
2023-01-27T01:33:40.107Z,2.60
2023-01-27T01:36:15.787Z,2.60
2023-01-27T01:38:42.829Z,2.70
2023-01-27T01:41:14.084Z,2.70
2023-01-27T01:43:40.900Z,2.80
2023-01-27T01:46:10.689Z,2.80
2023-01-27T01:48:47.087Z,2.70
2023-01-27T01:51:28.654Z,3.30
2023-01-27T01:54:17.131Z,2.90
2023-01-27T01:57:00.474Z,3.40
2023-01-27T01:59:35.849Z,3.10
2023-01-27T02:02:06.761Z,2.90
2023-01-27T02:04:40.312Z,2.90
2023-01-27T02:07:29.358Z,2.80
2023-01-27T02:09:56.973Z,3.10
2023-01-27T02:12:23.888Z,2.80
2023-01-27T02:14:50.897Z,2.80
2023-01-27T02:17:17.893Z,2.90
2023-01-27T02:20:05.943Z,3.00
2023-01-27T02:23:21.057Z,3.50
2023-01-27T02:25:48.595Z,3.40
2023-01-27T02:28:15.595Z,3.10
2023-01-27T02:30:42.618Z,3.00
2023-01-27T02:33:16.415Z,2.10
2023-01-27T02:35:59.231Z,3.10
2023-01-27T02:38:28.523Z,3.40
2023-01-27T02:41:01.355Z,3.10
2023-01-27T02:43:28.337Z,3.00
2023-01-27T02:45:55.359Z,3.70
2023-01-27T02:48:22.321Z,3.40
2023-01-27T02:50:49.282Z,3.00
2023-01-27T02:53:16.181Z,3.00
2023-01-27T02:55:43.174Z,3.20
2023-01-27T02:58:09.984Z,3.10
2023-01-27T03:00:36.979Z,3.20
2023-01-27T03:03:03.854Z,3.20
2023-01-27T03:05:33.712Z,3.20
2023-01-27T03:08:00.740Z,3.30
2023-01-27T03:10:27.666Z,3.30
2023-01-27T03:12:54.648Z,3.70
2023-01-27T03:15:39.890Z,3.10
2023-01-27T03:18:16.047Z,3.20
2023-01-27T03:20:45.651Z,3.20
2023-01-27T03:23:14.176Z,3.20
2023-01-27T03:25:45.215Z,3.20
2023-01-27T03:28:12.978Z,3.20
2023-01-27T03:30:40.773Z,3.70
2023-01-27T03:33:07.978Z,3.30
2023-01-27T03:35:48.623Z,3.20
2023-01-27T03:38:35.245Z,3.40
2023-01-27T03:41:24.095Z,3.20
2023-01-27T03:44:09.536Z,3.40
2023-01-27T03:46:36.340Z,3.30
2023-01-27T03:49:03.135Z,3.30
2023-01-27T03:51:29.968Z,3.20
2023-01-27T03:53:56.870Z,3.00
2023-01-27T03:56:24.174Z,3.20
2023-01-27T03:58:51.097Z,3.30
2023-01-27T04:01:23.133Z,3.30
2023-01-27T04:04:09.516Z,3.30
2023-01-27T04:06:55.144Z,3.30
2023-01-27T04:09:34.131Z,3.30
2023-01-27T04:12:04.678Z,4.00
2023-01-27T04:14:32.827Z,3.30
2023-01-27T04:17:05.554Z,3.20
2023-01-27T04:19:33.608Z,3.30
2023-01-27T04:22:01.756Z,3.50
2023-01-27T04:24:28.851Z,3.30
2023-01-27T04:27:03.514Z,3.40
2023-01-27T04:29:33.224Z,3.40
2023-01-27T04:32:00.155Z,3.30
2023-01-27T04:34:42.232Z,3.20
2023-01-27T04:37:10.601Z,3.40
2023-01-27T04:39:49.829Z,3.30
2023-01-27T04:42:16.642Z,3.40
2023-01-27T04:44:43.579Z,3.80
2023-01-27T04:47:10.440Z,4.30
2023-01-27T04:49:37.271Z,3.30
2023-01-27T04:52:04.306Z,3.40
2023-01-27T04:54:31.364Z,3.90
2023-01-27T04:57:00.535Z,3.30
2023-01-27T04:59:27.777Z,3.40
2023-01-27T05:01:54.929Z,3.40
2023-01-27T05:04:22.061Z,3.50
2023-01-27T05:06:49.004Z,3.40
2023-01-27T05:09:15.956Z,3.30
2023-01-27T05:11:42.769Z,3.10
2023-01-27T05:14:09.571Z,3.00
2023-01-27T05:16:39.017Z,2.40
2023-01-27T05:19:07.300Z,3.40
2023-01-27T05:21:34.139Z,3.30
2023-01-27T05:24:02.363Z,3.20
2023-01-27T05:26:29.831Z,4.30
2023-01-27T05:28:58.277Z,4.00
2023-01-27T05:31:27.969Z,3.60
2023-01-27T05:33:56.354Z,4.20
2023-01-27T05:36:25.286Z,3.50
2023-01-27T05:38:53.029Z,4.40
2023-01-27T05:41:20.541Z,3.60
2023-01-27T05:43:51.868Z,3.50
2023-01-27T05:46:21.248Z,3.60
2023-01-27T05:48:50.496Z,3.30
2023-01-27T05:51:18.999Z,4.10
2023-01-27T05:53:46.620Z,3.50
2023-01-27T05:56:16.933Z,4.60
2023-01-27T05:58:44.337Z,3.40
2023-01-27T06:01:13.831Z,3.50
2023-01-27T06:03:40.895Z,4.30
2023-01-27T06:06:09.549Z,3.40
2023-01-27T06:08:37.390Z,3.50
2023-01-27T06:11:04.663Z,3.90
2023-01-27T06:13:35.662Z,3.50
2023-01-27T06:16:04.152Z,3.70
2023-01-27T06:18:31.044Z,5.20
2023-01-27T06:21:02.944Z,4.00
2023-01-27T06:23:29.780Z,4.80
2023-01-27T06:26:00.873Z,3.50
2023-01-27T06:28:29.493Z,3.50
2023-01-27T06:31:04.229Z,3.60
2023-01-27T06:33:31.132Z,3.60
2023-01-27T06:36:03.130Z,3.30
2023-01-27T06:38:29.994Z,4.60
2023-01-27T06:40:56.776Z,3.50
2023-01-27T06:43:23.512Z,3.30
2023-01-27T06:45:50.762Z,3.50
2023-01-27T06:48:17.581Z,4.60
2023-01-27T06:50:44.505Z,3.90
2023-01-27T06:53:11.940Z,4.00
2023-01-27T06:55:42.060Z,3.70
2023-01-27T06:58:09.828Z,3.30
2023-01-27T07:00:37.529Z,4.00
2023-01-27T07:03:04.657Z,4.30
2023-01-27T07:05:32.992Z,3.60
2023-01-27T07:08:00.529Z,3.60
2023-01-27T07:10:27.794Z,3.60
2023-01-27T07:13:07.628Z,3.60
2023-01-27T07:15:35.111Z,4.00
2023-01-27T07:18:02.755Z,4.60
2023-01-27T07:20:30.411Z,3.70
2023-01-27T07:23:01.843Z,3.90
2023-01-27T07:25:30.794Z,3.60
2023-01-27T07:27:58.787Z,3.60
2023-01-27T07:30:26.466Z,4.40
2023-01-27T07:32:55.187Z,4.10
2023-01-27T07:35:22.888Z,3.70
2023-01-27T07:37:49.688Z,3.90
2023-01-27T07:40:16.877Z,3.80
2023-01-27T07:42:43.908Z,3.80
2023-01-27T07:45:11.181Z,3.70
2023-01-27T07:47:38.063Z,3.70
2023-01-27T07:50:05.179Z,4.50
2023-01-27T07:52:32.044Z,3.70
2023-01-27T07:54:58.773Z,3.10
2023-01-27T07:57:27.000Z,5.10
2023-01-27T07:59:55.724Z,4.30
2023-01-27T08:02:24.477Z,3.60
2023-01-27T08:04:53.678Z,3.60
2023-01-27T08:07:21.052Z,3.60
2023-01-27T08:09:47.873Z,3.60
2023-01-27T08:12:14.721Z,3.90
2023-01-27T08:14:41.567Z,3.50
2023-01-27T08:17:09.742Z,3.70
2023-01-27T08:19:36.396Z,3.70
2023-01-27T08:22:03.203Z,3.60
2023-01-27T08:24:29.988Z,3.70
2023-01-27T08:26:56.902Z,3.70
2023-01-27T08:29:23.766Z,3.90
2023-01-27T08:31:50.559Z,3.60
2023-01-27T08:34:17.401Z,4.00
2023-01-27T08:36:45.229Z,3.80
2023-01-27T08:39:11.991Z,2.90
2023-01-27T08:41:39.316Z,3.70
2023-01-27T08:44:07.101Z,3.80
2023-01-27T08:46:34.160Z,3.70
2023-01-27T08:49:01.095Z,3.50
2023-01-27T08:51:28.763Z,3.70
2023-01-27T08:53:55.766Z,3.70
2023-01-27T08:56:23.064Z,3.70
2023-01-27T08:58:52.370Z,3.70
2023-01-27T09:01:21.121Z,3.70
2023-01-27T09:03:48.337Z,4.20
2023-01-27T09:06:15.862Z,3.90
2023-01-27T09:08:44.249Z,4.30
2023-01-27T09:11:13.475Z,4.60
2023-01-27T09:13:40.374Z,3.80
2023-01-27T09:16:08.255Z,3.60
2023-01-27T09:18:35.280Z,3.80
2023-01-27T09:21:05.088Z,3.60
2023-01-27T09:23:33.145Z,3.80
2023-01-27T09:26:00.125Z,3.80
2023-01-27T09:28:26.941Z,3.80
2023-01-27T09:30:58.097Z,3.90
2023-01-27T09:33:26.184Z,4.20
2023-01-27T09:36:21.447Z,3.90
2023-01-27T09:38:57.121Z,3.90
2023-01-27T09:41:51.402Z,4.60
2023-01-27T09:44:36.002Z,2.90
2023-01-27T09:47:31.111Z,4.10
2023-01-27T09:50:10.226Z,4.20
2023-01-27T09:52:47.613Z,4.50
2023-01-27T09:55:37.552Z,4.30
2023-01-27T09:58:50.092Z,4.40
2023-01-27T10:01:32.199Z,4.40
2023-01-27T10:04:11.004Z,5.50
2023-01-27T10:06:56.228Z,4.50
2023-01-27T10:17:26.355Z,5.10
2023-01-27T10:20:23.292Z,5.30
2023-01-27T10:23:29.788Z,5.30
2023-01-27T10:26:35.338Z,5.20
2023-01-27T10:29:26.318Z,5.30
2023-01-27T10:32:15.869Z,5.40
2023-01-27T10:34:56.031Z,5.20
2023-01-27T10:38:02.287Z,5.10
2023-01-27T10:40:36.782Z,5.20
2023-01-27T13:49:37.434Z,4.30
2023-01-27T13:52:07.646Z,5.00
2023-01-27T13:54:34.680Z,4.60
2023-01-27T13:57:07.287Z,4.10
2023-01-27T13:59:45.787Z,4.30
2023-01-27T14:02:44.664Z,4.20
2023-01-27T14:39:00.021Z,4.00
2023-01-27T14:41:33.213Z,4.20
2023-01-27T14:43:59.889Z,4.00
2023-01-27T16:33:04.297Z,3.40
2023-01-27T16:35:42.897Z,4.10
2023-01-27T16:38:24.818Z,4.60
2023-01-27T16:40:58.784Z,3.50
2023-01-27T16:43:31.841Z,3.50
2023-01-27T16:46:01.832Z,3.40
2023-01-27T16:48:42.353Z,3.40
2023-01-27T16:51:21.067Z,3.50
2023-01-27T16:53:49.815Z,3.80
2023-01-27T16:56:21.406Z,4.30
2023-01-27T16:58:50.987Z,3.20
2023-01-27T17:01:26.782Z,3.10
2023-01-27T17:04:04.794Z,3.20
2023-01-27T17:06:37.892Z,3.10
2023-01-27T17:11:46.173Z,3.00
2023-01-27T17:14:28.506Z,3.10
2023-01-27T17:19:32.880Z,2.60
2023-01-27T17:32:21.275Z,3.30
2023-01-27T17:34:54.884Z,3.30
2023-01-27T17:37:23.353Z,3.00
2023-01-27T17:39:58.961Z,3.10
2023-01-27T17:45:15.920Z,3.00
2023-01-27T17:47:44.680Z,3.10
2023-01-27T17:50:19.656Z,3.10
2023-01-27T17:55:21.825Z,2.90
2023-01-27T17:57:50.999Z,3.00
2023-01-27T18:10:33.389Z,2.90
2023-01-27T18:16:02.359Z,2.80
2023-01-27T18:20:57.544Z,2.70
2023-01-27T18:26:32.791Z,2.60
